METAR AND TAF INFORMATION
METAR FOR EGNX
ADDS - METARS form results

(0356 UTC 19 April 2021)
Data provider http://aviationweather.gov/metar/data/
 
METAR text: EGNX 190350Z 05003KT CAVOK 02/M01 Q1023
Conditions at: EGNX (EAST MIDLANDS , GB) observed 0350 UTC 19 April 2021
Temperature: 2.0°C (36°F)
Dewpoint: -1.0°C (30°F) [RH = 80%]
Pressure (altimeter): 30.21 inches Hg (1023.0 mb)
Winds: from the NE (50 degrees) at 3 MPH (3 knots; 1.5 m/s)
Visibility: 6 or more miles (10+ km)
Ceiling: ceiling and visibility are OK
Clouds: unknown
Weather: no significant weather observed at this time

METAR text: EGNX 190320Z 36002KT CAVOK 03/M01 Q1023
Conditions at: EGNX (EAST MIDLANDS , GB) observed 0320 UTC 19 April 2021
Temperature: 3.0°C (37°F)
Dewpoint: -1.0°C (30°F) [RH = 75%]
Pressure (altimeter): 30.21 inches Hg (1023.0 mb)
Winds: from the N (360 degrees) at 2 MPH (2 knots; 1.0 m/s)
Visibility: 6 or more miles (10+ km)
Ceiling: ceiling and visibility are OK
Clouds: unknown
Weather: no significant weather observed at this time

Forecast for: EGNX (EAST MIDLANDS , GB)
Text: TAF EGNX 182259Z 1900/1924 VRB03KT CAVOK
Forecast period: 0000 UTC 19 April 2021 to 0000 UTC 20 April 2021
Forecast type: FROM: standard forecast or significant change
Winds: variable direction winds at 3 MPH (3 knots; 1.5 m/s)
Visibility: 6 or more miles (10+ km)
Ceiling: unknown
Clouds: missing
Weather: NSW  (no significant weather)
Text: TEMPO 1903/1908 7000
Forecast period: 0300 to 0800 UTC 19 April 2021
Forecast type: TEMPORARY: The following changes expected for less than half the time period
Visibility: 4 miles (7 km)
Ceiling: unknown
Clouds: missing
Weather: no significant weather forecast for this period
Text: PROB30
Forecast period: 0300 to 0700 UTC 19 April 2021
Forecast type: TEMPORARY: The following changes expected for less than half the time period
Visibility: 0.12 miles (0.19 km)
Ceiling: unknown
Clouds: missing
Weather: FG  (fog)

 AIRPORT MAP

 RUNWAY INFORMATION
Runway 09 Runway length 9491 ft Runway width 151 ft
Runway elevation 306 ft Runway displaced threshold 590 ft Runway heading 88
Runway 27 Runway length 9491 ft Runway width 151 ft
Runway elevation 282 ft Runway displaced threshold 426 ft Runway heading 268

 AIRPORT FREQUENCIES
Type APP Name APP Frequency 134.175 MHZ
Type ATIS Name ATIS Frequency 128.225 MHZ
Type Fire servi Name Frequency 121.6 MHZ
Type GND Name GND Frequency 121.9 MHZ
Type TWR Name TWR Frequency 124 MHZ

 AIRPORT NEAR NAVIGATION AIDS



Powered by Western Air Virtual